Huvudsida
METAR-TAF:

METAR-TAF

Flygplatser :

Kuching, Malaysia

latitud: 01-29N, longitud: 110-20E, höjd: 27 m

Aktuellt väderrapport

Denna rapport gjordes för 26 minuter sedan, klockan 15:30 UTC
Vind 4 kt från väst, varierande mellan syd/sydväst och nordväst
Temperatur 25°C
Fuktighet 94%
Tryck 1011 hPa
Sikt 10 km eller mer
Få moln på en höjd av 1500 ft, Cumulonimbus.
Spridda moln på en höjd av 2000 ft
Brutna moln på en höjd av 15000 ft

METAR: WBGG 271530Z 26004KT 200V310 9999 FEW015CB SCT020 BKN150 25/24 Q1011 NOSIG

Tid: 23:56 (15:56 UTC)

Väderprognos

Denna rapport gjordes för 4 timmar och 56 minuter sedan, klockan 11:00 UTC
Prognos gäller från 27 kl. 12 UTC till 28 kl. 12 UTC
Vind 3 kt varierande vindriktning
Sikt 10 km eller mer
Spridda moln på en höjd av 2000 ft
Temporärt
från 27 kl. 20 UTC till 28 kl. 00 UTC
Sikt: 4000 m
Få moln på en höjd av 1500 ft, Cumulonimbus.
åska, regn

TAF: WBGG 271100Z 2712/2812 VRB03KT 9999 SCT020 TEMPO 2720/2800 4000 TSRA FEW015CB

Aktuella väderrapporter och prognoser från 4000 flygplatser (METAR- och TAF-rapporter).

De tillgängliga stationerna syns som gula och röda prickar på kartan.

För musen över prickarna för att se namnen på stationerna.

Klicka sedan för att få väderrapporter och prognoser.

För att ändra kartan: Klicka på de gröna knapparna med ett svart kors på för att zooma in; den gröna knappen med ett streck på för att zooma ut; eller på de gröna pilarna för angränsande kartor.


METAR-TAF: